createdAt,value
2023-05-02T00:00:10.420Z,1029.3077
2023-05-02T00:01:11.821Z,1027.7693
2023-05-02T00:02:13.231Z,1029.0769
2023-05-02T00:03:14.666Z,1031.8462
2023-05-02T00:04:16.137Z,1029.6154
2023-05-02T00:05:17.457Z,1040.8462
2023-05-02T00:06:18.948Z,1039.1538
2023-05-02T00:07:20.349Z,1040.0000
2023-05-02T00:08:21.718Z,1038.8462
2023-05-02T00:09:23.290Z,1041.0000
2023-05-02T00:10:24.643Z,1042.5385
2023-05-02T00:11:26.143Z,1047.4615
2023-05-02T00:12:27.402Z,1048.9231
2023-05-02T00:13:28.913Z,1050.1538
2023-05-02T00:14:30.309Z,1049.0000
2023-05-02T00:15:31.780Z,1045.9231
2023-05-02T00:16:33.302Z,1045.1538
2023-05-02T00:17:34.690Z,1045.3077
2023-05-02T00:18:36.025Z,1044.3846
2023-05-02T00:19:37.447Z,1041.4615
2023-05-02T00:20:38.966Z,1039.2307
2023-05-02T00:21:40.326Z,1038.0000
2023-05-02T00:22:41.672Z,1040.0000
2023-05-02T00:23:43.118Z,1043.3077
2023-05-02T00:24:44.518Z,1040.0000
2023-05-02T00:25:46.007Z,1034.9231
2023-05-02T00:26:47.463Z,1033.8462
2023-05-02T00:27:48.797Z,1037.1538
2023-05-02T00:28:50.145Z,1036.9231
2023-05-02T00:29:51.671Z,1034.2307
2023-05-02T00:30:53.090Z,1035.7693
2023-05-02T00:31:54.569Z,1041.9231
2023-05-02T00:32:55.973Z,1044.3846
2023-05-02T00:33:57.390Z,1041.6923
2023-05-02T00:34:58.766Z,1040.5385
2023-05-02T00:36:00.210Z,1039.7693
2023-05-02T00:37:01.600Z,1036.3077
2023-05-02T00:38:03.102Z,1031.3846
2023-05-02T00:39:04.409Z,1030.9231
2023-05-02T00:40:05.889Z,1034.0769
2023-05-02T00:41:07.237Z,1041.7693
2023-05-02T00:42:08.694Z,1045.6923
2023-05-02T00:43:10.098Z,1049.0000
2023-05-02T00:44:11.537Z,1048.0769
2023-05-02T00:45:12.920Z,1046.5385
2023-05-02T00:46:14.374Z,1051.7693
2023-05-02T00:47:15.793Z,1050.7693
2023-05-02T00:48:17.205Z,1047.3077
2023-05-02T00:49:18.541Z,1048.6154
2023-05-02T00:50:20.036Z,1048.0769
2023-05-02T00:51:21.418Z,1053.8462
2023-05-02T00:52:22.931Z,1052.6154
2023-05-02T00:53:24.264Z,1048.9231
2023-05-02T00:54:25.726Z,1049.6923
2023-05-02T00:55:27.103Z,1049.4615
2023-05-02T00:56:28.545Z,1052.2307
2023-05-02T00:57:30.006Z,1053.4615
2023-05-02T00:58:31.418Z,1050.0769
2023-05-02T00:59:32.798Z,1054.0000
2023-05-02T01:00:34.246Z,1054.3846
2023-05-02T01:01:35.576Z,1057.8462
2023-05-02T01:02:37.279Z,1052.3077
2023-05-02T01:03:38.590Z,1055.0769
2023-05-02T01:04:39.980Z,1050.8462
2023-05-02T01:05:41.329Z,1052.5385
2023-05-02T01:06:42.898Z,1054.7693
2023-05-02T01:07:44.179Z,1053.0000
2023-05-02T01:08:45.600Z,1055.0769
2023-05-02T01:09:46.991Z,1054.2307
2023-05-02T01:10:48.416Z,1053.9231
2023-05-02T01:11:49.820Z,1053.3077
2023-05-02T01:12:51.307Z,1050.9231
2023-05-02T01:13:52.662Z,1049.1538
2023-05-02T01:14:54.134Z,1050.2307
2023-05-02T01:15:55.506Z,1052.2307
2023-05-02T01:16:56.996Z,1053.6154
2023-05-02T01:17:58.499Z,1055.8462
2023-05-02T01:18:59.818Z,1059.1538
2023-05-02T01:20:01.331Z,1061.4615
2023-05-02T01:21:02.657Z,1059.9231
2023-05-02T01:22:04.066Z,1059.0769
2023-05-02T01:23:05.456Z,1055.4615
2023-05-02T01:24:06.863Z,1054.0000
2023-05-02T01:25:08.178Z,1055.3077
2023-05-02T01:26:09.715Z,1054.0000
2023-05-02T01:27:11.105Z,1055.0769
2023-05-02T01:28:12.595Z,1055.6923
2023-05-02T01:29:13.859Z,1055.3077
2023-05-02T01:30:15.400Z,1055.6154
2023-05-02T01:31:16.826Z,1057.6923
2023-05-02T01:32:18.250Z,1059.6154
2023-05-02T01:33:19.684Z,1058.3846
2023-05-02T01:34:21.091Z,1056.0000
2023-05-02T01:35:22.402Z,1059.2307
2023-05-02T01:36:23.943Z,1058.4615
2023-05-02T01:37:25.328Z,1058.7693
2023-05-02T01:38:26.842Z,1059.7693
2023-05-02T01:39:28.122Z,1059.6923
2023-05-02T01:40:29.585Z,1060.5385
2023-05-02T01:41:30.974Z,1060.4615
2023-05-02T01:42:32.423Z,1060.1538
2023-05-02T01:43:33.834Z,1061.9231
2023-05-02T01:44:35.260Z,1062.9231
2023-05-02T01:45:36.621Z,1061.2307
2023-05-02T01:46:38.176Z,1060.8462
2023-05-02T01:47:39.509Z,1054.5385
2023-05-02T01:48:40.975Z,1054.8462
2023-05-02T01:49:42.342Z,1059.6154
2023-05-02T01:50:43.800Z,1060.0769
2023-05-02T01:51:45.117Z,1061.5385
2023-05-02T01:52:46.641Z,1061.0000
2023-05-02T01:53:48.094Z,1060.0769
2023-05-02T01:54:49.469Z,1059.4615
2023-05-02T01:55:50.844Z,1059.8462
2023-05-02T01:56:52.310Z,1060.5385
2023-05-02T01:57:53.693Z,1057.6923
2023-05-02T01:58:55.190Z,1055.5385
2023-05-02T01:59:56.580Z,1054.3077
2023-05-02T02:00:58.022Z,1056.3077
2023-05-02T02:01:59.362Z,1057.6923
2023-05-02T02:03:00.808Z,1059.8462
2023-05-02T02:04:02.339Z,1059.5385
2023-05-02T02:05:03.699Z,1052.7693
2023-05-02T02:06:05.127Z,1054.7693
2023-05-02T02:07:06.650Z,1045.2307
2023-05-02T02:08:07.948Z,1042.3077
2023-05-02T02:09:09.462Z,1038.3846
2023-05-02T02:10:10.788Z,1040.2307
2023-05-02T02:11:12.235Z,1041.2307
2023-05-02T02:12:13.652Z,1040.3077
2023-05-02T02:13:15.147Z,1041.7693
2023-05-02T02:14:16.499Z,1042.7693
2023-05-02T02:15:17.968Z,1044.0769
2023-05-02T02:16:19.400Z,1044.0000
2023-05-02T02:17:20.762Z,1043.6923
2023-05-02T02:18:22.159Z,1038.9231
2023-05-02T02:19:23.664Z,1041.4615
2023-05-02T02:20:25.068Z,1044.2307
2023-05-02T02:21:26.434Z,1049.9231
2023-05-02T02:22:27.852Z,1054.3077
2023-05-02T02:23:29.341Z,1053.7693
2023-05-02T02:24:30.738Z,1052.2307
2023-05-02T02:25:32.173Z,1051.4615
2023-05-02T02:26:33.530Z,1053.9231
2023-05-02T02:27:34.986Z,1051.3077
2023-05-02T02:28:36.431Z,1052.1538
2023-05-02T02:29:37.875Z,1052.3846
2023-05-02T02:30:39.379Z,1050.9231
2023-05-02T02:31:40.657Z,1054.0000
2023-05-02T02:32:42.146Z,1052.6923
2023-05-02T02:33:43.496Z,1053.6154
2023-05-02T02:34:45.056Z,1054.9231
2023-05-02T02:35:46.389Z,1055.0000
2023-05-02T02:36:47.804Z,1056.2307
2023-05-02T02:37:49.185Z,1053.5385
2023-05-02T02:38:50.652Z,1051.9231
2023-05-02T02:39:52.107Z,1056.6923
2023-05-02T02:40:53.514Z,1056.3077
2023-05-02T02:41:54.902Z,1056.5385
2023-05-02T02:42:56.338Z,1055.0769
2023-05-02T02:43:57.805Z,1053.3846
2023-05-02T02:44:59.174Z,1052.8462
2023-05-02T02:46:00.729Z,1054.8462
2023-05-02T02:47:02.000Z,1054.4615
2023-05-02T02:48:03.492Z,1054.3077
2023-05-02T02:49:04.872Z,1051.5385
2023-05-02T02:50:06.365Z,1054.0000
2023-05-02T02:51:07.772Z,1055.6154
2023-05-02T02:52:09.135Z,1057.6154
2023-05-02T02:53:10.511Z,1061.0769
2023-05-02T02:54:25.411Z,1060.6923
2023-05-02T02:55:13.423Z,1058.7500
2023-05-02T02:56:14.899Z,1059.6923
2023-05-02T02:57:16.224Z,1056.6154
2023-05-02T02:58:17.626Z,1057.6923
2023-05-02T02:59:19.067Z,1056.0769
2023-05-02T03:00:20.604Z,1056.5385
2023-05-02T03:01:21.975Z,1056.9231
2023-05-02T03:02:23.386Z,1059.9231
2023-05-02T03:03:24.872Z,1061.1538
2023-05-02T03:04:26.186Z,1063.1538
2023-05-02T03:05:27.679Z,1058.1538
2023-05-02T03:06:29.187Z,1056.0769
2023-05-02T03:07:30.493Z,1053.6154
2023-05-02T03:08:31.905Z,1052.1538
2023-05-02T03:09:33.316Z,1053.6923
2023-05-02T03:10:34.868Z,1052.9231
2023-05-02T03:11:36.192Z,1053.3077
2023-05-02T03:12:37.653Z,1057.5385
2023-05-02T03:13:39.003Z,1058.7693
2023-05-02T03:14:40.508Z,1057.3846
2023-05-02T03:15:41.919Z,1054.6923
2023-05-02T03:16:43.420Z,1055.9231
2023-05-02T03:17:44.821Z,1061.6923
2023-05-02T03:18:46.229Z,1060.1538
2023-05-02T03:19:47.584Z,1059.4615
2023-05-02T03:20:48.959Z,1060.6923
2023-05-02T03:21:50.504Z,1061.0769
2023-05-02T03:22:51.896Z,1058.5385
2023-05-02T03:23:53.264Z,1054.4615
2023-05-02T03:24:54.687Z,1060.0000
2023-05-02T03:25:56.072Z,1059.9231
2023-05-02T03:26:57.568Z,1059.6923
2023-05-02T03:27:58.953Z,1055.2307
2023-05-02T03:29:00.364Z,1056.3077
2023-05-02T03:30:02.084Z,1054.3846
2023-05-02T03:31:03.260Z,1053.7693
2023-05-02T03:32:04.750Z,1057.3077
2023-05-02T03:33:06.100Z,1054.5385
2023-05-02T03:34:07.513Z,1055.9231
2023-05-02T03:35:08.913Z,1057.3077
2023-05-02T03:36:10.338Z,1059.3077
2023-05-02T03:37:11.759Z,1057.6923
2023-05-02T03:38:13.287Z,1057.0000
2023-05-02T03:39:14.594Z,1059.6154
2023-05-02T03:40:16.052Z,1055.2307
2023-05-02T03:41:17.346Z,1062.7693
2023-05-02T03:42:18.910Z,1066.3846
2023-05-02T03:43:20.332Z,1066.7693
2023-05-02T03:44:21.781Z,1064.5385
2023-05-02T03:45:23.152Z,1062.6154
2023-05-02T03:46:24.617Z,1066.5385
2023-05-02T03:47:26.032Z,1065.8462
2023-05-02T03:48:27.496Z,1061.3077
2023-05-02T03:49:28.805Z,1064.7693
2023-05-02T03:50:30.294Z,1064.9231
2023-05-02T03:51:31.604Z,1065.9231
2023-05-02T03:52:33.125Z,1056.6154
2023-05-02T03:53:34.562Z,1058.2307
2023-05-02T03:54:36.040Z,1061.5385
2023-05-02T03:55:37.405Z,1065.7693
2023-05-02T03:56:40.202Z,1067.0769
2023-05-02T03:57:40.259Z,1056.6923
2023-05-02T03:58:41.721Z,1059.4615
2023-05-02T03:59:43.160Z,1062.5385
2023-05-02T04:00:44.552Z,1062.2307
2023-05-02T04:01:45.969Z,1063.5385
2023-05-02T04:02:47.495Z,1067.5385
2023-05-02T04:03:48.900Z,1067.0769
2023-05-02T04:04:50.287Z,1067.0769
2023-05-02T04:05:51.676Z,1064.4615
2023-05-02T04:06:53.185Z,1065.6154
2023-05-02T04:07:54.469Z,1062.7693
2023-05-02T04:08:56.001Z,1062.5385
2023-05-02T04:09:57.439Z,1061.0769
2023-05-02T04:10:58.748Z,1064.6923
2023-05-02T04:12:00.256Z,1067.8462
2023-05-02T04:13:01.716Z,1062.6923
2023-05-02T04:14:03.164Z,1058.2307
2023-05-02T04:15:04.615Z,1064.1538
2023-05-02T04:16:05.982Z,1069.3077
2023-05-02T04:17:07.543Z,1065.9231
2023-05-02T04:18:08.891Z,1063.5385
2023-05-02T04:19:10.829Z,1056.0769
2023-05-02T04:20:11.696Z,1054.0000
2023-05-02T04:21:13.073Z,1053.1538
2023-05-02T04:22:14.478Z,1054.0769
2023-05-02T04:23:15.922Z,1058.2307
2023-05-02T04:24:17.389Z,1059.6923
2023-05-02T04:25:18.867Z,1056.6154
2023-05-02T04:26:20.108Z,1053.1538
2023-05-02T04:27:21.622Z,1047.0000
2023-05-02T04:28:23.113Z,1041.9231
2023-05-02T04:29:24.506Z,1041.1538
2023-05-02T04:30:25.932Z,1040.9231
2023-05-02T04:31:27.406Z,1047.2307
2023-05-02T04:32:28.802Z,1047.4615
2023-05-02T04:33:30.120Z,1047.4615
2023-05-02T04:34:31.591Z,1049.0769
2023-05-02T04:35:32.987Z,1050.3846
2023-05-02T04:36:34.390Z,1052.3077
2023-05-02T04:37:35.783Z,1052.4615
2023-05-02T04:38:37.224Z,1053.2307
2023-05-02T04:39:38.613Z,1052.0769
2023-05-02T04:40:40.120Z,1046.7693
2023-05-02T04:41:41.486Z,1047.4615
2023-05-02T04:42:42.925Z,1050.8462
2023-05-02T04:43:44.358Z,1051.3846
2023-05-02T04:44:45.814Z,1051.0769
2023-05-02T04:45:47.112Z,1053.2307
2023-05-02T04:46:48.613Z,1054.6154
2023-05-02T04:47:50.028Z,1054.6154
2023-05-02T04:48:51.472Z,1057.3846
2023-05-02T04:49:52.875Z,1057.6154
2023-05-02T04:50:54.403Z,1057.0000
2023-05-02T04:51:55.733Z,1054.8462
2023-05-02T04:52:57.121Z,1056.0000
2023-05-02T04:53:58.523Z,1056.3846
2023-05-02T04:55:00.001Z,1058.8462
2023-05-02T04:56:01.351Z,1058.9231
2023-05-02T04:57:02.792Z,1058.5385
2023-05-02T04:58:04.173Z,1056.3846
2023-05-02T04:59:05.617Z,1058.6923
2023-05-02T05:00:07.042Z,1060.0000
2023-05-02T05:01:08.557Z,1059.6154
2023-05-02T05:02:09.991Z,1060.3846
2023-05-02T05:03:11.383Z,1060.7693
2023-05-02T05:04:12.810Z,1065.5385
2023-05-02T05:05:14.215Z,1051.2307
2023-05-02T05:06:15.676Z,946.4615
2023-05-02T05:07:17.003Z,837.7692
2023-05-02T05:08:18.366Z,742.3077
2023-05-02T05:09:19.881Z,678.6154
2023-05-02T05:10:21.203Z,642.8461
2023-05-02T05:11:23.375Z,620.7692
2023-05-02T05:12:24.095Z,616.5385
2023-05-02T05:13:25.479Z,641.0000
2023-05-02T05:14:26.902Z,673.6154
2023-05-02T05:15:28.322Z,690.3846
2023-05-02T05:16:29.841Z,697.6154
2023-05-02T05:17:31.240Z,693.1539
2023-05-02T05:18:32.589Z,693.7692
2023-05-02T05:19:34.010Z,693.2308
2023-05-02T05:20:35.480Z,694.6923
2023-05-02T05:21:36.892Z,699.9231
2023-05-02T05:22:38.284Z,711.0000
2023-05-02T05:23:39.630Z,730.6923
2023-05-02T05:24:41.080Z,745.3846
2023-05-02T05:25:44.249Z,754.0000
2023-05-02T05:26:43.949Z,765.5385
2023-05-02T05:27:45.355Z,788.9231
2023-05-02T05:28:46.759Z,806.9231
2023-05-02T05:29:48.072Z,814.2308
2023-05-02T05:30:49.621Z,821.4615
2023-05-02T05:31:51.074Z,839.6154
2023-05-02T05:32:52.437Z,852.0769
2023-05-02T05:33:53.883Z,863.6154
2023-05-02T05:34:55.281Z,884.5385
2023-05-02T05:35:56.712Z,892.3846
2023-05-02T05:36:58.104Z,892.6154
2023-05-02T05:37:59.564Z,901.4615
2023-05-02T05:39:00.921Z,909.3077
2023-05-02T05:40:02.899Z,910.3077
2023-05-02T05:41:03.759Z,913.0769
2023-05-02T05:42:05.264Z,916.7692
2023-05-02T05:43:06.688Z,916.3846
2023-05-02T05:44:08.077Z,916.6923
2023-05-02T05:45:09.445Z,914.6923
2023-05-02T05:46:10.881Z,900.3077
2023-05-02T05:47:12.490Z,900.4615
2023-05-02T05:48:13.846Z,905.0000
2023-05-02T05:49:15.144Z,911.0000
2023-05-02T05:50:16.623Z,917.3077
2023-05-02T05:51:17.989Z,920.5385
2023-05-02T05:52:19.525Z,922.2308
2023-05-02T05:53:20.896Z,924.2308
2023-05-02T05:54:22.298Z,928.6923
2023-05-02T05:55:23.656Z,935.3077
2023-05-02T05:56:25.100Z,943.9231
2023-05-02T05:57:26.529Z,946.3846
2023-05-02T05:58:27.979Z,949.7692
2023-05-02T05:59:29.328Z,949.0000
2023-05-02T06:00:30.777Z,950.1539
2023-05-02T06:01:32.156Z,954.5385
2023-05-02T06:02:33.734Z,966.0769
2023-05-02T06:03:35.222Z,965.2308
2023-05-02T06:04:36.527Z,967.4615
2023-05-02T06:05:37.851Z,971.6154
2023-05-02T06:06:39.361Z,978.8461
2023-05-02T06:07:40.725Z,979.8461
2023-05-02T06:08:42.160Z,980.6154
2023-05-02T06:09:43.597Z,983.5385
2023-05-02T06:10:44.986Z,983.6923
2023-05-02T06:11:46.303Z,983.9231
2023-05-02T06:12:49.255Z,984.7692
2023-05-02T06:13:49.272Z,986.6923
2023-05-02T06:14:50.705Z,984.7692
2023-05-02T06:15:52.061Z,982.1539
2023-05-02T06:16:53.468Z,989.1539
2023-05-02T06:17:55.009Z,992.8461
2023-05-02T06:18:56.364Z,994.5385
2023-05-02T06:19:58.081Z,997.6923
2023-05-02T06:20:59.118Z,1001.6923
2023-05-02T06:22:00.602Z,1004.0769
2023-05-02T06:23:02.059Z,1003.1539
2023-05-02T06:24:03.504Z,1002.7692
2023-05-02T06:25:04.900Z,1003.0000
2023-05-02T06:26:06.307Z,1002.9231
2023-05-02T06:27:07.723Z,998.0000
2023-05-02T06:28:09.135Z,997.3077
2023-05-02T06:29:10.601Z,999.3077
2023-05-02T06:30:11.921Z,1005.3077
2023-05-02T06:31:13.477Z,1006.3077
2023-05-02T06:32:14.769Z,1004.8461
2023-05-02T06:33:16.293Z,1005.3846
2023-05-02T06:34:17.689Z,1008.5385
2023-05-02T06:35:19.094Z,1012.5385
2023-05-02T06:36:20.472Z,1014.7692
2023-05-02T06:37:21.864Z,1011.2308
2023-05-02T06:38:23.368Z,1010.0000
2023-05-02T06:39:24.766Z,1012.4615
2023-05-02T06:40:26.205Z,1013.7692
2023-05-02T06:41:27.612Z,1013.6154
2023-05-02T06:42:29.045Z,1012.9231
2023-05-02T06:43:30.480Z,1010.7692
2023-05-02T06:44:31.910Z,1013.7692
2023-05-02T06:45:33.265Z,1020.0000
2023-05-02T06:46:34.769Z,1020.3077
2023-05-02T06:47:36.163Z,1021.9231
2023-05-02T06:48:37.593Z,1021.3846
2023-05-02T06:49:39.025Z,1022.2308
2023-05-02T06:50:40.448Z,1020.4615
2023-05-02T06:51:41.817Z,1019.0769
2023-05-02T06:52:43.252Z,1022.6154
2023-05-02T06:53:44.686Z,1021.9231
2023-05-02T06:54:46.212Z,1023.3846
2023-05-02T06:55:47.509Z,1021.6154
2023-05-02T06:56:48.874Z,1019.3846
2023-05-02T06:57:50.372Z,1011.7692
2023-05-02T06:58:51.848Z,1015.4615
2023-05-02T06:59:53.555Z,1019.1539
2023-05-02T07:00:54.742Z,1023.6923
2023-05-02T07:01:56.038Z,1021.0769
2023-05-02T07:02:57.574Z,1015.4615
2023-05-02T07:03:58.927Z,1012.6923
2023-05-02T07:05:00.334Z,1013.3846
2023-05-02T07:06:01.715Z,1009.1539
2023-05-02T07:07:03.144Z,1013.3077
2023-05-02T07:08:04.530Z,1019.1539
2023-05-02T07:09:06.026Z,1021.6154
2023-05-02T07:10:07.398Z,1019.1539
2023-05-02T07:11:08.872Z,1024.4615
2023-05-02T07:12:10.213Z,1021.8461
2023-05-02T07:13:11.688Z,1023.0769
2023-05-02T07:14:13.026Z,1028.6923
2023-05-02T07:15:14.550Z,1029.0000
2023-05-02T07:16:15.864Z,1032.6923
2023-05-02T07:17:17.359Z,1035.3846
2023-05-02T07:18:18.830Z,1030.0000
2023-05-02T07:19:20.250Z,1032.0000
2023-05-02T07:20:21.698Z,1040.6923
2023-05-02T07:21:23.052Z,1039.6154
2023-05-02T07:22:24.470Z,1036.3077
2023-05-02T07:23:25.845Z,1035.3846
2023-05-02T07:24:27.307Z,1036.0000
2023-05-02T07:25:28.735Z,1037.9231
2023-05-02T07:26:30.173Z,1044.8462
2023-05-02T07:27:31.560Z,1048.6923
2023-05-02T07:28:33.001Z,1050.9231
2023-05-02T07:29:34.412Z,1055.5385
2023-05-02T07:30:35.857Z,1063.7693
2023-05-02T07:31:37.237Z,1062.7693
2023-05-02T07:32:38.681Z,1062.6923
2023-05-02T07:33:40.047Z,1064.0769
2023-05-02T07:34:41.406Z,1071.5385
2023-05-02T07:35:42.980Z,1076.1538
2023-05-02T07:36:44.364Z,1082.0769
2023-05-02T07:37:45.713Z,1089.4615
2023-05-02T07:38:47.199Z,1117.7693
2023-05-02T07:39:48.553Z,1137.9231
2023-05-02T07:40:50.053Z,1137.7693
2023-05-02T07:41:51.456Z,1132.2307
2023-05-02T07:42:52.849Z,1128.6154
2023-05-02T07:43:54.234Z,1132.3846
2023-05-02T07:44:55.689Z,1150.9231
2023-05-02T07:45:57.172Z,1161.3077
2023-05-02T07:46:58.584Z,1171.3077
2023-05-02T07:47:59.957Z,1177.5385
2023-05-02T07:49:01.379Z,1179.6923
2023-05-02T07:50:03.006Z,1179.6154
2023-05-02T07:51:04.289Z,1180.6154
2023-05-02T07:52:05.693Z,1182.4615
2023-05-02T07:53:07.077Z,1183.1538
2023-05-02T07:54:08.480Z,1181.7693
2023-05-02T07:55:09.944Z,1180.3077
2023-05-02T07:56:11.388Z,1181.5385
2023-05-02T07:57:12.807Z,1186.0000
2023-05-02T07:58:14.193Z,1188.2307
2023-05-02T07:59:15.610Z,1191.0769
2023-05-02T08:00:17.017Z,1193.1538
2023-05-02T08:01:18.543Z,1195.4615
2023-05-02T08:02:20.034Z,1197.5385
2023-05-02T08:03:21.451Z,1198.1538
2023-05-02T08:04:22.896Z,1195.1538
2023-05-02T08:05:24.165Z,1192.6154
2023-05-02T08:06:25.689Z,1192.6923
2023-05-02T08:07:27.046Z,1191.0000
2023-05-02T08:08:28.373Z,1189.0769
2023-05-02T08:09:29.845Z,1185.3846
2023-05-02T08:10:31.257Z,1186.0769
2023-05-02T08:11:32.677Z,1185.8462
2023-05-02T08:12:34.180Z,1181.2307
2023-05-02T08:13:35.640Z,1186.7693
2023-05-02T08:14:36.912Z,1192.0000
2023-05-02T08:15:38.585Z,1192.7693
2023-05-02T08:16:40.040Z,1193.8462
2023-05-02T08:17:41.355Z,1198.0769
2023-05-02T08:18:42.674Z,1198.2307
2023-05-02T08:19:44.065Z,1196.9231
2023-05-02T08:20:45.514Z,1191.8462
2023-05-02T08:21:46.960Z,1189.6154
2023-05-02T08:22:48.397Z,1192.4615
2023-05-02T08:23:49.799Z,1190.3077
2023-05-02T08:24:51.175Z,1190.5385
2023-05-02T08:25:52.616Z,1195.5385
2023-05-02T08:26:54.074Z,1198.2307
2023-05-02T08:27:55.493Z,1198.6154
2023-05-02T08:28:56.917Z,1197.7693
2023-05-02T08:30:00.658Z,1188.7693
2023-05-02T08:30:59.697Z,1181.5385
2023-05-02T08:32:01.280Z,1174.3077
2023-05-02T08:33:02.618Z,1174.6154
2023-05-02T08:34:04.009Z,1174.4615
2023-05-02T08:35:05.424Z,1173.5385
2023-05-02T08:36:06.852Z,1174.3077
2023-05-02T08:37:08.299Z,1185.6154
2023-05-02T08:38:09.732Z,1195.3077
2023-05-02T08:39:11.093Z,1202.1538
2023-05-02T08:40:12.550Z,1202.8462
2023-05-02T08:41:13.958Z,1200.0769
2023-05-02T08:42:15.359Z,1199.2307
2023-05-02T08:43:16.797Z,1202.3846
2023-05-02T08:44:18.207Z,1208.0000
2023-05-02T08:45:19.555Z,1207.9231
2023-05-02T08:46:21.011Z,1202.8462
2023-05-02T08:47:22.617Z,1202.7693
2023-05-02T08:48:23.953Z,1194.8462
2023-05-02T08:49:25.323Z,1192.0769
2023-05-02T08:50:26.772Z,1188.6154
2023-05-02T08:51:28.088Z,1186.7693
2023-05-02T08:52:29.506Z,1187.6923
2023-05-02T08:53:31.027Z,1187.1538
2023-05-02T08:54:32.422Z,1188.0769
2023-05-02T08:55:33.748Z,1184.8462
2023-05-02T08:56:35.205Z,1185.0000
2023-05-02T08:57:36.668Z,1186.7693
2023-05-02T08:58:38.154Z,1189.0769
2023-05-02T08:59:39.546Z,1194.0769
2023-05-02T09:00:40.991Z,1194.0769
2023-05-02T09:01:42.371Z,1194.3077
2023-05-02T09:02:43.865Z,1194.6154
2023-05-02T09:03:45.205Z,1200.2307
2023-05-02T09:04:46.769Z,1208.1538
2023-05-02T09:05:47.999Z,1207.3077
2023-05-02T09:06:49.499Z,1205.1538
2023-05-02T09:07:50.832Z,1203.0000
2023-05-02T09:08:52.276Z,1198.0000
2023-05-02T09:09:53.729Z,1193.6154
2023-05-02T09:10:55.213Z,1190.6923
2023-05-02T09:11:56.475Z,1183.7693
2023-05-02T09:12:57.981Z,1181.6154
2023-05-02T09:13:59.388Z,1178.5385
2023-05-02T09:15:01.033Z,1175.6154
2023-05-02T09:16:02.208Z,1183.3077
2023-05-02T09:17:03.844Z,1183.1538
2023-05-02T09:18:05.151Z,1180.9231
2023-05-02T09:19:06.497Z,1179.1538
2023-05-02T09:20:07.913Z,1180.6923
2023-05-02T09:21:09.379Z,1171.6923
2023-05-02T09:22:10.791Z,1169.0769
2023-05-02T09:23:12.249Z,1166.1538
2023-05-02T09:24:13.677Z,1166.6154
2023-05-02T09:25:15.098Z,1165.5385
2023-05-02T09:26:16.464Z,1162.3077
2023-05-02T09:27:17.900Z,1164.4615
2023-05-02T09:28:19.270Z,1164.7693
2023-05-02T09:29:20.714Z,1163.6923
2023-05-02T09:30:22.235Z,1160.0769
2023-05-02T09:32:24.987Z,1165.0769
2023-05-02T09:33:26.467Z,1163.9231
2023-05-02T09:34:27.825Z,1161.1538
2023-05-02T09:35:29.326Z,1158.0769
2023-05-02T09:36:30.727Z,1156.0000
2023-05-02T09:37:32.182Z,1157.0000
2023-05-02T09:38:33.529Z,1153.9231
2023-05-02T09:39:34.973Z,1150.6154
2023-05-02T09:40:36.399Z,1150.4615
2023-05-02T09:41:37.858Z,1154.4615
2023-05-02T09:42:39.230Z,1158.8462
2023-05-02T09:43:40.683Z,1160.8462
2023-05-02T09:44:42.061Z,1158.8462
2023-05-02T09:45:43.592Z,1158.2307
2023-05-02T09:46:45.034Z,1156.0000
2023-05-02T09:47:46.361Z,1157.9231
2023-05-02T09:48:47.776Z,1158.8462
2023-05-02T09:49:49.241Z,1156.3846
2023-05-02T09:50:50.691Z,1152.8462
2023-05-02T09:51:52.153Z,1154.8462
2023-05-02T09:52:53.499Z,1151.2307
2023-05-02T09:53:54.984Z,1152.8462
2023-05-02T09:54:56.363Z,1153.4615
2023-05-02T09:55:57.840Z,1153.7693
2023-05-02T09:56:59.225Z,1150.4615
2023-05-02T09:58:00.594Z,1148.6154
2023-05-02T09:59:02.050Z,1151.2307
2023-05-02T10:00:03.756Z,1147.6923
2023-05-02T10:01:05.002Z,1145.8462
2023-05-02T10:02:06.323Z,1145.8462
2023-05-02T10:03:07.823Z,1141.1538
2023-05-02T10:04:09.658Z,1142.8462
2023-05-02T10:05:10.615Z,1144.0769
2023-05-02T10:06:12.158Z,1142.1538
2023-05-02T10:07:13.568Z,1143.6154
2023-05-02T10:08:14.902Z,1144.3846
2023-05-02T10:09:19.783Z,1142.0769
2023-05-02T10:10:17.707Z,1136.0834
2023-05-02T10:11:19.242Z,1139.6154
2023-05-02T10:12:20.570Z,1136.0769
2023-05-02T10:13:21.988Z,1137.0000
2023-05-02T10:14:23.402Z,1133.5385
2023-05-02T10:15:24.820Z,1133.1538
2023-05-02T10:16:26.282Z,1134.3846
2023-05-02T10:17:27.730Z,1133.6154
2023-05-02T10:18:29.097Z,1130.9231
2023-05-02T10:19:30.492Z,1132.5385
2023-05-02T10:20:31.970Z,1129.6923
2023-05-02T10:21:33.429Z,1130.0769
2023-05-02T10:22:34.835Z,1129.4615
2023-05-02T10:23:36.142Z,1124.6154
2023-05-02T10:24:37.645Z,1123.2307
2023-05-02T10:25:39.050Z,1127.6154
2023-05-02T10:26:40.474Z,1123.5385
2023-05-02T10:27:41.876Z,1123.6154
2023-05-02T10:28:43.407Z,1124.0769
2023-05-02T10:29:44.701Z,1121.5385
2023-05-02T10:30:46.134Z,1120.0000
2023-05-02T10:31:47.603Z,1119.0769
2023-05-02T10:32:49.053Z,1118.6154
2023-05-02T10:33:50.424Z,1118.2307
2023-05-02T10:34:51.831Z,1119.0000
2023-05-02T10:35:53.240Z,1117.3077
2023-05-02T10:36:54.675Z,1116.5385
2023-05-02T10:37:56.105Z,1117.0769
2023-05-02T10:38:57.589Z,1112.0000
2023-05-02T10:39:58.984Z,1114.8462
2023-05-02T10:41:00.337Z,1110.4615
2023-05-02T10:42:01.759Z,1112.3077
2023-05-02T10:43:03.187Z,1111.1538
2023-05-02T10:44:04.676Z,1107.2307
2023-05-02T10:45:06.025Z,1106.1538
2023-05-02T10:46:07.478Z,1106.7693
2023-05-02T10:47:08.834Z,1105.2307
2023-05-02T10:48:10.402Z,1106.9231
2023-05-02T10:49:11.713Z,1106.0000
2023-05-02T10:50:13.167Z,1105.5385
2023-05-02T10:51:14.554Z,1106.3846
2023-05-02T10:52:15.888Z,1107.6923
2023-05-02T10:53:17.395Z,1101.0000
2023-05-02T10:54:18.858Z,1101.5385
2023-05-02T10:55:20.214Z,1101.5385
2023-05-02T10:56:21.679Z,1102.6154
2023-05-02T10:57:23.029Z,1098.4615
2023-05-02T10:58:24.559Z,1102.8462
2023-05-02T10:59:25.924Z,1097.6923
2023-05-02T11:00:27.398Z,1088.6923
2023-05-02T11:01:28.858Z,1088.5385
2023-05-02T11:02:30.227Z,1087.5385
2023-05-02T11:03:31.620Z,1088.3846
2023-05-02T11:04:33.056Z,1086.8462
2023-05-02T11:05:34.427Z,1087.7693
2023-05-02T11:06:35.908Z,1089.6154
2023-05-02T11:07:37.232Z,1086.0769
2023-05-02T11:08:38.617Z,1087.2307
2023-05-02T11:09:40.128Z,1088.9231
2023-05-02T11:10:41.575Z,1090.6154
2023-05-02T11:11:43.299Z,1089.4615
2023-05-02T11:12:44.309Z,1089.2307
2023-05-02T11:13:45.778Z,1088.8462
2023-05-02T11:14:47.314Z,1088.9231
2023-05-02T11:15:48.678Z,1088.6154
2023-05-02T11:16:50.085Z,1084.9231
2023-05-02T11:17:51.448Z,1084.8462
2023-05-02T11:18:52.875Z,1085.0000
2023-05-02T11:19:54.318Z,1083.8462
2023-05-02T11:20:55.765Z,1078.3846
2023-05-02T11:21:57.119Z,1080.5385
2023-05-02T11:22:58.604Z,1080.3077
2023-05-02T11:23:59.933Z,1078.2307
2023-05-02T11:25:01.748Z,1077.0000
2023-05-02T11:26:02.859Z,1078.2307
2023-05-02T11:27:04.245Z,1075.1538
2023-05-02T11:28:05.681Z,1071.7693
2023-05-02T11:29:07.090Z,1066.4615
2023-05-02T11:30:08.491Z,1061.5385
2023-05-02T11:31:09.974Z,1065.8462
2023-05-02T11:32:11.348Z,1067.7693
2023-05-02T11:33:12.808Z,1070.6923
2023-05-02T11:34:14.141Z,1070.6923
2023-05-02T11:35:15.612Z,1069.6923
2023-05-02T11:36:17.152Z,1069.9231
2023-05-02T11:37:18.449Z,1070.9231
2023-05-02T11:38:19.878Z,1070.5385
2023-05-02T11:39:21.302Z,1069.0000
2023-05-02T11:40:22.722Z,1070.0000
2023-05-02T11:41:24.195Z,1064.7693
2023-05-02T11:42:25.554Z,1063.5385
2023-05-02T11:43:28.165Z,1058.4615